Rincon, PR

1:16 PM AST on October 25, 2014 (GMT -0400)
Barrio Puntas | Change Station
CLOSE
Current Station
Personal Weather Station
Location: Rincon, PR
Elevation: 0 ft
Nearby Weather Stations

Elev 0 ft 18.37 °N, 67.25 °W | Updated 2 seconds ago

Scattered Clouds
Scattered Clouds
90.1 °F
Feels Like 93 °F
N
0.0
Wind Variable Wind from South
Gusts 0.0 mph

Today
High -- | Low -- °F
--% Chance of Precip.
Yesterday
High -- | Low -- °F
Precip. -- in
6:25 AM 6:00 PM
Waxing Crescent, 4% visible
Pressure 29.90 in
Visibility 10.0 miles
Clouds Scattered Clouds 4000 ft
Heat Index 93 °F
Dew Point 67 °F
Humidity 47%
Rainfall 0.00 in
Snow Depth Not available.
UV 7 out of 12
Pollen Not available.
Air Quality Not available.
Flu Activity Local Activity
METAR TJMZ 251650Z 17011KT 10SM SCT040 32/21 A2990

More Conditions Fewer Conditions

Pressure 29.90 in
Visibility 10.0 miles
Clouds Scattered Clouds 4000 ft
Heat Index 93 °F
Dew Point 67 °F
Humidity 47%
Rainfall 0.00 in
Snow Depth Not available.
UV 7 out of 12
Pollen Not available.
Air Quality Not available.
Flu Activity Local Activity
METAR TJMZ 251650Z 17011KT 10SM SCT040 32/21 A2990

More Conditions Fewer Conditions

10-Day Weather Forecast

Almanac

Astronomy

Oct. 25, 2014 Rise Set
Actual Time 6:25 AM AST 6:00 PM AST
Civil Twilight 6:03 AM AST 6:22 PM AST
Nautical Twilight 5:37 AM AST 6:47 PM AST
Astronomical Twilight 5:12 AM AST 7:13 PM AST
Moon 7:51 AM AST 7:31 PM AST
Length of Visible Light 12h 18m
Length of Day
11h 34m
Tomorrow will be 0m 57s shorter.
Waxing Crescent, 4% of the Moon is Illuminated
Today
Waxing Crescent
Oct 30
First Quarter
Nov 6
Full
Nov 14
Last Quarter
Nov 22
New

Community

WunderPhotos

Upload Photos

1,764,916 photos uploaded!

Nearby

Snow Depth

Station Depth Elevation
No new snow has been reported.

Earthquake Activity

City Distance Mag. Time & Date
No recent earthquake activity has been reported nearby.
Minimum magnitude displayed is 2.5.

Coastal Water Temperatures

Place Temperature
Mayaguez, PR 84.9 °F
Magueyes Islands, PR 84.9 °F
Mona Island, PR 81.0 °F

Nearby Weather Stations